Time;durP1;ratioP1;P1;durP2;ratioP2;P2;SDS_P1;SDS_P2;PMS_P1;PMS_P2;Temp;Humidity;BMP_temperature;BMP_pressure;BME280_temperature;BME280_humidity;BME280_pressure;Samples;Min_cycle;Max_cycle;Signal;HPM_P1;HPM_P2
2024/03/30 00:00:54;;;;;;;4.90;2.30;;;11.80;99.90;;;;;;5072925;28;20040;-79
2024/03/30 00:03:21;;;;;;;4.70;2.50;;;11.20;99.90;;;;;;5056851;28;20170;-78
2024/03/30 00:05:47;;;;;;;4.05;2.60;;;11.60;99.90;;;;;;5068341;28;20123;-78
2024/03/30 00:08:13;;;;;;;4.47;2.35;;;11.60;99.90;;;;;;5051214;28;20083;-78
2024/03/30 00:10:41;;;;;;;4.10;2.30;;;11.20;99.90;;;;;;5069144;28;20067;-79
2024/03/30 00:13:10;;;;;;;3.75;2.17;;;11.20;99.90;;;;;;5074390;28;20067;-80
2024/03/30 00:15:37;;;;;;;3.25;1.90;;;11.20;99.90;;;;;;5042656;28;20485;-79
2024/03/30 00:18:04;;;;;;;4.30;2.40;;;11.20;99.90;;;;;;5071040;28;20047;-79
2024/03/30 00:20:30;;;;;;;5.85;2.28;;;11.20;99.90;;;;;;5055931;28;20036;-79
2024/03/30 00:22:56;;;;;;;3.22;1.88;;;11.20;99.90;;;;;;5072079;28;20086;-79
2024/03/30 00:25:29;;;;;;;3.92;1.85;;;11.20;99.90;;;;;;5064775;28;20117;-79
2024/03/30 00:27:54;;;;;;;;;;;11.20;99.90;;;;;;5069438;28;20064;-80
2024/03/30 00:30:20;;;;;;;4.55;1.73;;;11.20;99.90;;;;;;5065459;28;19924;-80
2024/03/30 00:32:48;;;;;;;2.97;1.60;;;11.20;99.90;;;;;;5059069;28;20459;-79
2024/03/30 00:35:14;;;;;;;3.90;1.67;;;11.20;99.90;;;;;;5061224;28;20126;-79
2024/03/30 00:37:40;;;;;;;5.13;2.00;;;11.20;99.90;;;;;;5058378;28;20033;-79
2024/03/30 00:40:06;;;;;;;6.70;2.05;;;11.20;99.90;;;;;;5071049;28;20043;-80
2024/03/30 00:42:32;;;;;;;4.38;1.85;;;11.20;99.90;;;;;;5070503;28;20040;-79
2024/03/30 00:44:58;;;;;;;4.90;1.88;;;11.10;99.90;;;;;;5069580;28;20093;-79
2024/03/30 00:47:24;;;;;;;4.50;2.00;;;11.10;99.90;;;;;;5075016;28;20037;-80
2024/03/30 00:49:50;;;;;;;5.25;2.20;;;11.10;99.90;;;;;;5074938;28;20037;-80
2024/03/30 00:52:15;;;;;;;3.65;1.90;;;11.10;99.90;;;;;;5063097;28;20041;-79
2024/03/30 00:54:41;;;;;;;4.03;2.20;;;11.10;99.90;;;;;;5053051;28;20115;-79
2024/03/30 00:57:07;;;;;;;3.15;1.95;;;11.10;99.90;;;;;;5055252;28;20087;-79
2024/03/30 00:59:35;;;;;;;2.90;2.10;;;11.10;99.90;;;;;;5073290;28;20040;-79
2024/03/30 01:02:01;;;;;;;6.68;2.00;;;11.10;99.90;;;;;;5075301;28;20067;-79
2024/03/30 01:04:27;;;;;;;3.25;2.00;;;11.00;99.90;;;;;;5068221;28;20040;-79
2024/03/30 01:06:53;;;;;;;3.65;2.20;;;11.00;99.90;;;;;;5045867;28;20092;-79
2024/03/30 01:09:19;;;;;;;4.72;2.40;;;11.30;99.90;;;;;;5050654;28;20072;-79
2024/03/30 01:11:45;;;;;;;3.55;2.10;;;11.00;99.90;;;;;;5070760;28;20115;-79
2024/03/30 01:14:12;;;;;;;3.70;1.90;;;11.00;99.90;;;;;;5053124;28;20090;-79
2024/03/30 01:16:38;;;;;;;2.97;2.00;;;10.90;99.90;;;;;;5051035;28;20569;-79
2024/03/30 01:19:04;;;;;;;3.72;2.08;;;10.90;99.90;;;;;;5056986;28;20419;-79
2024/03/30 01:21:33;;;;;;;4.88;2.13;;;10.90;99.90;;;;;;5071144;28;20059;-79
2024/03/30 01:23:59;;;;;;;2.90;2.20;;;10.90;99.90;;;;;;5065758;28;20043;-79
2024/03/30 01:26:26;;;;;;;4.63;1.90;;;10.90;99.90;;;;;;5060905;28;20052;-79
2024/03/30 01:28:54;;;;;;;3.08;2.08;;;10.90;99.90;;;;;;5068256;28;20116;-79
2024/03/30 01:31:20;;;;;;;3.63;1.92;;;10.90;99.90;;;;;;5069328;28;20052;-79
2024/03/30 01:33:46;;;;;;;3.85;2.10;;;10.90;99.90;;;;;;5042444;28;20489;-79
2024/03/30 01:36:11;;;;;;;4.03;2.03;;;10.90;99.90;;;;;;5062101;28;20040;-79
2024/03/30 01:38:37;;;;;;;4.22;1.90;;;10.80;99.90;;;;;;5066360;28;20468;-79
2024/03/30 01:41:02;;;;;;;4.47;1.92;;;10.90;99.90;;;;;;5066551;28;20104;-79
2024/03/30 01:43:28;;;;;;;2.53;1.90;;;10.80;99.90;;;;;;5064733;28;20062;-79
2024/03/30 01:45:55;;;;;;;2.97;2.03;;;10.80;99.90;;;;;;5061867;28;20071;-79
2024/03/30 01:48:21;;;;;;;5.03;2.28;;;10.80;99.90;;;;;;5046660;28;20045;-79
2024/03/30 01:50:48;;;;;;;4.18;1.98;;;10.80;99.90;;;;;;5071670;28;20115;-79
2024/03/30 01:53:16;;;;;;;5.28;2.30;;;10.80;99.90;;;;;;5073102;28;20043;-79
2024/03/30 01:55:45;;;;;;;3.67;2.08;;;10.90;99.90;;;;;;5063035;28;20554;-79
2024/03/30 01:58:15;;;;;;;6.10;2.30;;;10.80;99.90;;;;;;5067455;28;21524;-79
2024/03/30 02:00:42;;;;;;;3.65;2.40;;;10.80;99.90;;;;;;5070994;28;20124;-79
2024/03/30 02:03:08;;;;;;;2.70;2.00;;;10.70;99.90;;;;;;5063909;28;20075;-79
2024/03/30 02:05:33;;;;;;;3.83;2.22;;;10.70;99.90;;;;;;5060363;28;20041;-79
2024/03/30 02:08:03;;;;;;;2.70;1.92;;;10.70;99.90;;;;;;5062583;28;20042;-79
2024/03/30 02:10:29;;;;;;;3.28;2.47;;;10.70;99.90;;;;;;5066034;28;20040;-79
2024/03/30 02:12:55;;;;;;;3.97;2.13;;;10.70;99.90;;;;;;5067798;28;20036;-79
2024/03/30 02:15:21;;;;;;;4.15;2.30;;;10.80;99.90;;;;;;5067403;28;20123;-79
2024/03/30 02:17:46;;;;;;;4.20;2.25;;;10.70;99.90;;;;;;5057178;28;20497;-79
2024/03/30 02:20:12;;;;;;;2.70;2.20;;;10.70;99.90;;;;;;5060726;28;20464;-79
2024/03/30 02:22:38;;;;;;;4.20;2.50;;;10.70;99.90;;;;;;5063682;28;20082;-79
2024/03/30 02:25:04;;;;;;;5.85;2.72;;;11.00;99.90;;;;;;5059662;28;20482;-79
2024/03/30 02:27:31;;;;;;;4.22;2.58;;;10.60;99.90;;;;;;5053770;28;20049;-79
2024/03/30 02:30:01;;;;;;;6.07;2.88;;;10.70;99.90;;;;;;5067127;28;20037;-79
2024/03/30 02:32:28;;;;;;;6.25;2.72;;;10.60;99.90;;;;;;5069431;28;20493;-79
2024/03/30 02:34:54;;;;;;;4.25;2.67;;;10.60;99.90;;;;;;5054909;28;20493;-79
2024/03/30 02:37:20;;;;;;;3.63;2.35;;;10.60;99.90;;;;;;5058268;28;20473;-79
2024/03/30 02:39:45;;;;;;;3.13;2.38;;;10.50;99.90;;;;;;5066685;28;20052;-79
2024/03/30 02:42:11;;;;;;;4.00;2.53;;;10.50;99.90;;;;;;5051248;28;20037;-79
2024/03/30 02:44:37;;;;;;;4.28;2.70;;;10.50;99.90;;;;;;5067602;28;20040;-79
2024/03/30 02:47:02;;;;;;;3.88;2.90;;;10.50;99.90;;;;;;5070220;28;20044;-80
2024/03/30 02:49:29;;;;;;;5.78;2.90;;;10.40;99.90;;;;;;5056485;28;20597;-79
2024/03/30 02:51:54;;;;;;;5.55;2.90;;;10.40;99.90;;;;;;5067973;28;20045;-79
2024/03/30 02:54:20;;;;;;;4.82;3.13;;;10.50;99.90;;;;;;5051708;28;20087;-79
2024/03/30 02:56:46;;;;;;;6.32;3.45;;;10.40;99.90;;;;;;5055508;28;20407;-79
2024/03/30 02:59:11;;;;;;;4.30;3.22;;;10.30;99.90;;;;;;5058146;28;20040;-79
2024/03/30 03:01:37;;;;;;;5.13;3.40;;;10.40;99.90;;;;;;5063656;28;20119;-79
2024/03/30 03:04:03;;;;;;;5.45;3.78;;;10.40;99.90;;;;;;5060891;28;20068;-79
2024/03/30 03:06:30;;;;;;;5.07;3.20;;;10.40;99.90;;;;;;5052566;28;20064;-79
2024/03/30 03:08:55;;;;;;;7.30;3.95;;;10.40;99.90;;;;;;5064036;28;20049;-79
2024/03/30 03:11:21;;;;;;;6.10;3.50;;;10.40;99.90;;;;;;5055038;28;20392;-79
2024/03/30 03:13:47;;;;;;;4.45;3.13;;;10.50;99.90;;;;;;5047322;28;20086;-79
2024/03/30 03:16:12;;;;;;;5.30;3.50;;;10.40;99.90;;;;;;5052821;28;20041;-79
2024/03/30 03:18:39;;;;;;;5.40;3.45;;;10.40;99.90;;;;;;5081836;22;20033;-78
2024/03/30 03:21:05;;;;;;;5.90;3.47;;;10.40;99.90;;;;;;5033274;28;20090;-76
2024/03/30 03:23:32;;;;;;;6.75;3.42;;;10.40;99.90;;;;;;5025958;28;20037;-76
2024/03/30 03:25:58;;;;;;;5.50;3.53;;;10.40;99.90;;;;;;5028812;28;20659;-75
2024/03/30 03:28:23;;;;;;;6.10;3.58;;;10.40;99.90;;;;;;5030352;28;20123;-78
2024/03/30 03:30:49;;;;;;;5.85;3.60;;;10.50;99.90;;;;;;5027096;28;20040;-76
2024/03/30 03:33:15;;;;;;;5.45;3.50;;;10.60;99.90;;;;;;5028756;28;20502;-76
2024/03/30 03:35:41;;;;;;;9.80;3.63;;;10.50;99.90;;;;;;5014495;28;20048;-76
2024/03/30 03:38:07;;;;;;;7.70;3.30;;;10.40;99.90;;;;;;5031789;28;20392;-76
2024/03/30 03:40:33;;;;;;;5.20;3.53;;;10.40;99.90;;;;;;5037433;28;20049;-76
2024/03/30 03:42:59;;;;;;;6.05;4.45;;;10.50;99.90;;;;;;5032283;28;20037;-76
2024/03/30 03:45:24;;;;;;;6.43;3.70;;;10.40;99.90;;;;;;5015961;28;20050;-78
2024/03/30 03:47:50;;;;;;;5.60;3.88;;;10.50;99.90;;;;;;5031690;28;20120;-77
2024/03/30 03:50:16;;;;;;;4.95;3.88;;;10.40;99.90;;;;;;5033463;28;20072;-76
2024/03/30 03:52:41;;;;;;;7.43;4.13;;;10.40;99.90;;;;;;5028593;28;20058;-76
2024/03/30 03:55:07;;;;;;;7.53;4.20;;;10.40;99.90;;;;;;5033331;28;20041;-76
2024/03/30 03:57:33;;;;;;;6.50;4.55;;;10.40;99.90;;;;;;5041283;28;20068;-77
2024/03/30 03:59:58;;;;;;;5.95;4.18;;;10.40;99.90;;;;;;5045168;28;20293;-76
2024/03/30 04:02:24;;;;;;;5.95;4.25;;;10.50;99.90;;;;;;5039265;28;20649;-76
2024/03/30 04:04:53;;;;;;;5.13;3.88;;;10.40;99.90;;;;;;5034163;28;20037;-76
2024/03/30 04:07:20;;;;;;;6.63;4.43;;;10.40;99.90;;;;;;5032201;28;20037;-76
2024/03/30 04:09:46;;;;;;;5.82;4.60;;;10.40;99.90;;;;;;5031721;28;20033;-76
2024/03/30 04:12:11;;;;;;;7.10;4.55;;;10.40;99.90;;;;;;5031926;28;20113;-77
2024/03/30 04:14:37;;;;;;;5.63;4.22;;;10.40;99.90;;;;;;5031744;28;20049;-76
2024/03/30 04:17:02;;;;;;;8.48;4.68;;;10.40;99.90;;;;;;5031559;28;20041;-76
2024/03/30 04:19:28;;;;;;;6.10;4.30;;;10.30;99.90;;;;;;5031337;28;20501;-76
2024/03/30 04:21:56;;;;;;;6.05;4.07;;;10.30;99.90;;;;;;5034543;28;20033;-76
2024/03/30 04:24:22;;;;;;;5.80;4.07;;;10.30;99.90;;;;;;5025547;28;20041;-78
2024/03/30 04:26:48;;;;;;;5.85;4.05;;;10.30;99.90;;;;;;5031369;28;20065;-76
2024/03/30 04:29:14;;;;;;;7.03;5.03;;;10.30;99.90;;;;;;5038252;28;20065;-78
2024/03/30 04:31:39;;;;;;;7.20;4.55;;;10.30;99.90;;;;;;5036294;28;20620;-77
2024/03/30 04:34:05;;;;;;;6.22;4.72;;;10.20;99.90;;;;;;5025354;28;20068;-76
2024/03/30 04:36:30;;;;;;;5.97;4.63;;;10.50;99.90;;;;;;5014917;28;20521;-76
2024/03/30 04:38:56;;;;;;;8.45;4.65;;;10.30;99.90;;;;;;5031485;28;20131;-79
2024/03/30 04:41:22;;;;;;;7.32;5.07;;;10.30;99.90;;;;;;5031447;28;20041;-79
2024/03/30 04:43:47;;;;;;;7.43;5.20;;;10.30;99.90;;;;;;5028804;28;20037;-76
2024/03/30 04:46:13;;;;;;;6.35;4.82;;;10.40;99.90;;;;;;5023448;28;20041;-76
2024/03/30 04:48:39;;;;;;;6.55;4.70;;;10.40;99.90;;;;;;5031053;28;20053;-76
2024/03/30 04:51:04;;;;;;;8.50;4.80;;;10.30;99.90;;;;;;5031151;28;20124;-76
2024/03/30 04:53:32;;;;;;;7.05;5.07;;;10.30;99.90;;;;;;5031563;28;20033;-79
2024/03/30 04:56:03;;;;;;;9.13;5.07;;;10.30;99.90;;;;;;5032386;28;20506;-79
2024/03/30 04:58:31;;;;;;;6.78;5.50;;;10.30;99.90;;;;;;5030777;28;20045;-77
2024/03/30 05:01:04;;;;;;;8.55;5.00;;;10.20;99.90;;;;;;5033723;28;20044;-76
2024/03/30 05:03:30;;;;;;;7.28;5.15;;;10.30;99.90;;;;;;5035673;28;20080;-76
2024/03/30 05:05:57;;;;;;;7.53;5.45;;;10.20;99.90;;;;;;5031057;28;20064;-76
2024/03/30 05:08:23;;;;;;;7.90;5.57;;;10.30;99.90;;;;;;5014514;28;20125;-76
2024/03/30 05:10:50;;;;;;;6.68;5.47;;;10.30;99.90;;;;;;5027770;28;20117;-76
2024/03/30 05:13:16;;;;;;;9.05;6.10;;;10.40;99.90;;;;;;5032029;28;20033;-77
2024/03/30 05:15:42;;;;;;;9.02;5.82;;;10.20;99.90;;;;;;5028472;28;20045;-81
2024/03/30 05:18:10;;;;;;;8.10;6.10;;;10.20;99.90;;;;;;5034196;28;20439;-76
2024/03/30 05:20:49;;;;;;;7.93;6.00;;;10.30;99.90;;;;;;5034978;28;20045;-77
2024/03/30 05:23:23;;;;;;;8.50;6.05;;;10.30;99.90;;;;;;5024281;28;20037;-77
2024/03/30 05:25:50;;;;;;;7.88;5.97;;;10.20;99.90;;;;;;5024871;28;20071;-79
2024/03/30 05:28:18;;;;;;;8.60;6.28;;;10.20;99.90;;;;;;5039605;28;20106;-77
2024/03/30 05:30:44;;;;;;;7.80;6.25;;;10.20;99.90;;;;;;5027139;28;20093;-80
2024/03/30 05:33:11;;;;;;;8.68;6.40;;;10.20;99.90;;;;;;5024062;28;20041;-76
2024/03/30 05:35:37;;;;;;;8.93;6.28;;;10.20;99.90;;;;;;5034235;28;20465;-77
2024/03/30 05:38:06;;;;;;;8.73;6.32;;;10.20;99.90;;;;;;5039010;28;20171;-77
2024/03/30 05:40:34;;;;;;;9.93;6.22;;;10.20;99.90;;;;;;5029841;28;20053;-77
2024/03/30 05:43:03;;;;;;;9.80;6.78;;;10.20;99.90;;;;;;5034713;28;20042;-79
2024/03/30 05:45:29;;;;;;;9.57;6.47;;;10.20;99.90;;;;;;5036165;28;20048;-77
2024/03/30 05:47:55;;;;;;;9.43;7.00;;;10.20;99.90;;;;;;5037845;28;20029;-77
2024/03/30 05:50:22;;;;;;;8.52;6.45;;;10.20;99.90;;;;;;5030075;28;20045;-77
2024/03/30 05:52:48;;;;;;;8.27;6.32;;;10.20;99.90;;;;;;5029905;28;20506;-79
2024/03/30 05:55:13;;;;;;;8.93;6.68;;;10.20;99.90;;;;;;5029922;28;20083;-77
2024/03/30 05:57:40;;;;;;;8.13;6.32;;;10.20;99.90;;;;;;5030859;28;20091;-77
2024/03/30 06:00:07;;;;;;;9.82;6.43;;;10.20;99.90;;;;;;5030218;28;20465;-77
2024/03/30 06:02:33;;;;;;;8.95;7.13;;;10.20;99.90;;;;;;5029902;28;20430;-77
2024/03/30 06:04:58;;;;;;;9.05;7.10;;;10.30;99.90;;;;;;5030963;28;20060;-77
2024/03/30 06:07:24;;;;;;;10.80;7.30;;;10.20;99.90;;;;;;5019468;28;20041;-77
2024/03/30 06:09:50;;;;;;;11.98;7.30;;;10.50;99.90;;;;;;5031889;28;20037;-77
2024/03/30 06:12:16;;;;;;;11.80;7.88;;;10.20;99.90;;;;;;5034521;28;20042;-77
2024/03/30 06:14:45;;;;;;;11.32;7.90;;;10.30;99.90;;;;;;5029839;28;20402;-77
2024/03/30 06:17:10;;;;;;;11.25;7.95;;;10.20;99.90;;;;;;5025873;28;20583;-79
2024/03/30 06:19:36;;;;;;;11.95;8.10;;;10.20;99.90;;;;;;5029456;28;20045;-76
2024/03/30 06:22:01;;;;;;;12.00;8.35;;;10.30;99.90;;;;;;5029255;28;20076;-77
2024/03/30 06:24:27;;;;;;;12.70;8.25;;;10.20;99.90;;;;;;5022996;28;20117;-77
2024/03/30 06:26:53;;;;;;;12.82;8.63;;;10.20;99.90;;;;;;5028977;28;20041;-79
2024/03/30 06:29:19;;;;;;;11.45;7.97;;;10.30;99.90;;;;;;5029483;28;20038;-77
2024/03/30 06:31:45;;;;;;;13.48;8.45;;;10.40;99.90;;;;;;5029715;28;20552;-80
2024/03/30 06:34:10;;;;;;;11.38;8.60;;;10.30;99.90;;;;;;5040383;28;20037;-76
2024/03/30 06:36:36;;;;;;;11.98;8.30;;;10.30;99.90;;;;;;5029644;28;20131;-77
2024/03/30 06:39:02;;;;;;;11.10;8.43;;;10.30;99.90;;;;;;5029549;28;20056;-77
2024/03/30 06:44:13;;;;;;;11.20;8.27;;;10.30;99.90;;;;;;5032590;28;20053;-79
2024/03/30 06:46:39;;;;;;;10.48;8.43;;;10.40;99.90;;;;;;5029621;28;20433;-76
2024/03/30 06:49:05;;;;;;;12.05;8.60;;;10.40;99.90;;;;;;5034333;28;20674;-76
2024/03/30 06:51:31;;;;;;;11.20;8.68;;;10.50;99.90;;;;;;5037522;28;20132;-76
2024/03/30 06:53:57;;;;;;;11.65;8.45;;;10.60;99.90;;;;;;5031689;28;20072;-77
2024/03/30 06:56:23;;;;;;;12.52;8.88;;;10.50;99.90;;;;;;5029757;28;20071;-76
2024/03/30 06:58:49;;;;;;;12.38;8.98;;;10.50;99.90;;;;;;5029067;28;20052;-76
2024/03/30 07:01:14;;;;;;;15.00;9.75;;;10.60;99.90;;;;;;5040737;28;20056;-77
2024/03/30 07:03:40;;;;;;;13.20;9.40;;;10.60;99.90;;;;;;5029804;28;20049;-77
2024/03/30 07:06:06;;;;;;;15.13;10.02;;;10.70;99.90;;;;;;5040032;28;20041;-78
2024/03/30 07:08:34;;;;;;;14.93;10.57;;;10.70;99.90;;;;;;5010591;28;20513;-80
2024/03/30 07:11:00;;;;;;;14.93;10.52;;;10.90;99.90;;;;;;5041233;28;20044;-76
2024/03/30 07:13:25;;;;;;;16.20;10.68;;;10.70;99.90;;;;;;5037700;28;20060;-76
2024/03/30 07:15:51;;;;;;;15.20;10.55;;;10.80;99.90;;;;;;5031272;28;20069;-76
2024/03/30 07:18:18;;;;;;;16.13;11.07;;;10.90;99.90;;;;;;5015610;28;20048;-79
2024/03/30 07:20:44;;;;;;;14.95;10.55;;;10.80;99.90;;;;;;5020792;28;20045;-76
2024/03/30 07:23:09;;;;;;;13.60;11.13;;;10.90;99.90;;;;;;5030718;28;20049;-76
2024/03/30 07:25:39;;;;;;;18.65;11.48;;;11.00;99.90;;;;;;5032989;28;20107;-76
2024/03/30 07:28:05;;;;;;;13.32;11.18;;;10.90;99.90;;;;;;5027171;28;20037;-80
2024/03/30 07:30:32;;;;;;;14.48;10.18;;;11.00;99.90;;;;;;5028047;28;20046;-74
2024/03/30 07:32:58;;;;;;;14.25;10.30;;;11.00;99.90;;;;;;5038436;28;20034;-74
2024/03/30 07:35:24;;;;;;;14.50;10.07;;;10.90;99.90;;;;;;5034419;28;20499;-74
2024/03/30 07:37:49;;;;;;;13.82;9.63;;;11.10;99.90;;;;;;5017377;28;20050;-76
2024/03/30 07:40:15;;;;;;;12.38;9.30;;;11.10;99.90;;;;;;5016157;28;20045;-76
2024/03/30 07:42:41;;;;;;;13.45;9.95;;;11.10;99.90;;;;;;5029717;28;20053;-74
2024/03/30 07:45:07;;;;;;;14.20;9.05;;;11.10;99.90;;;;;;5044011;28;20047;-74
2024/03/30 07:47:33;;;;;;;12.98;9.35;;;11.20;99.90;;;;;;5030050;28;20425;-73
2024/03/30 07:49:58;;;;;;;14.75;9.73;;;11.30;99.90;;;;;;5032711;28;20088;-73
2024/03/30 07:52:24;;;;;;;12.43;9.00;;;11.30;99.90;;;;;;5031498;28;20120;-74
2024/03/30 07:54:49;;;;;;;14.43;8.43;;;11.50;99.90;;;;;;5035717;28;20034;-76
2024/03/30 07:57:15;;;;;;;13.15;8.35;;;11.30;99.90;;;;;;5032517;28;20449;-74
2024/03/30 07:59:40;;;;;;;11.52;7.63;;;11.40;99.90;;;;;;5032051;28;20040;-74
2024/03/30 08:02:06;;;;;;;10.55;7.75;;;11.60;99.90;;;;;;5028229;28;20078;-74
2024/03/30 08:04:32;;;;;;;11.88;7.47;;;11.40;99.90;;;;;;5031994;28;20045;-76
2024/03/30 08:06:57;;;;;;;12.27;7.80;;;11.50;99.90;;;;;;5034773;28;20041;-73
2024/03/30 08:09:23;;;;;;;11.63;7.53;;;11.50;99.90;;;;;;5028197;28;20067;-73
2024/03/30 08:11:48;;;;;;;11.27;7.38;;;11.50;99.90;;;;;;5031569;28;20048;-73
2024/03/30 08:14:19;;;;;;;9.95;6.68;;;11.60;99.90;;;;;;5029146;28;20037;-75
2024/03/30 08:16:45;;;;;;;9.35;6.93;;;11.60;99.90;;;;;;5039319;28;20052;-72
2024/03/30 08:19:11;;;;;;;9.38;6.45;;;11.70;99.90;;;;;;5031693;28;20037;-73
2024/03/30 08:21:37;;;;;;;11.10;6.80;;;11.70;99.90;;;;;;5031405;28;20041;-73
2024/03/30 08:24:03;;;;;;;9.32;6.80;;;11.70;99.90;;;;;;5029676;28;20136;-73
2024/03/30 08:26:29;;;;;;;9.07;6.85;;;11.70;99.90;;;;;;5028397;28;20491;-73
2024/03/30 08:28:54;;;;;;;8.65;6.35;;;11.80;99.90;;;;;;5031528;28;20044;-74
2024/03/30 08:31:20;;;;;;;8.68;6.38;;;11.80;99.90;;;;;;5025592;28;20030;-73
2024/03/30 08:33:47;;;;;;;9.57;6.20;;;11.80;99.90;;;;;;5030354;28;20072;-73
2024/03/30 08:36:12;;;;;;;10.93;6.65;;;11.90;99.90;;;;;;5031296;28;20071;-75
2024/03/30 08:38:39;;;;;;;10.25;6.93;;;11.90;99.90;;;;;;5031741;28;20049;-76
2024/03/30 08:41:05;;;;;;;11.35;7.15;;;12.00;99.90;;;;;;5031422;28;20036;-76
2024/03/30 08:43:30;;;;;;;8.30;6.50;;;12.10;99.90;;;;;;5035385;28;20049;-77
2024/03/30 08:45:57;;;;;;;9.20;6.68;;;12.00;99.90;;;;;;5032696;28;20064;-77
2024/03/30 08:48:23;;;;;;;11.85;7.13;;;12.10;99.90;;;;;;5014854;28;20037;-78
2024/03/30 08:50:49;;;;;;;9.55;6.63;;;12.20;99.90;;;;;;5038444;28;20499;-79
2024/03/30 08:53:15;;;;;;;9.65;6.40;;;12.20;99.90;;;;;;5030925;28;20466;-78
2024/03/30 08:55:41;;;;;;;7.38;5.70;;;12.30;99.90;;;;;;5029964;28;20042;-77
2024/03/30 08:58:07;;;;;;;10.38;6.18;;;12.30;99.90;;;;;;5031373;28;20904;-75
2024/03/30 09:00:38;;;;;;;9.82;5.55;;;12.30;99.90;;;;;;5039102;28;20064;-75
2024/03/30 09:03:04;;;;;;;8.63;5.75;;;12.50;99.90;;;;;;5031281;28;20045;-76
2024/03/30 09:05:30;;;;;;;8.48;4.93;;;12.50;99.90;;;;;;5020099;28;20172;-77
2024/03/30 09:07:56;;;;;;;7.50;5.35;;;12.50;99.90;;;;;;5036488;28;20061;-78
2024/03/30 09:10:24;;;;;;;6.90;4.60;;;12.60;99.90;;;;;;5033966;28;20095;-76
2024/03/30 09:12:49;;;;;;;7.70;4.90;;;12.60;99.90;;;;;;5032527;28;20049;-78
2024/03/30 09:15:15;;;;;;;8.68;4.40;;;12.70;99.90;;;;;;5020609;28;20548;-75
2024/03/30 09:17:41;;;;;;;5.70;4.15;;;12.80;99.90;;;;;;5032362;28;20508;-75
2024/03/30 09:20:07;;;;;;;6.60;4.00;;;12.80;99.90;;;;;;5063638;22;20081;-78
2024/03/30 09:22:33;;;;;;;5.30;3.60;;;12.80;99.90;;;;;;4998366;28;20585;-79
2024/03/30 09:25:03;;;;;;;5.88;2.95;;;12.90;99.90;;;;;;5000268;28;20061;-78
2024/03/30 09:27:29;;;;;;;4.97;3.42;;;13.00;99.90;;;;;;5000430;28;20047;-78
2024/03/30 09:29:55;;;;;;;4.93;3.45;;;13.10;99.90;;;;;;5008710;28;20041;-78
2024/03/30 09:32:22;;;;;;;6.28;3.50;;;13.10;99.90;;;;;;5014779;28;20038;-80
2024/03/30 09:34:47;;;;;;;5.72;3.55;;;13.10;99.90;;;;;;5022559;28;20042;-81
2024/03/30 09:37:14;;;;;;;4.32;3.08;;;13.20;99.90;;;;;;5013033;28;20052;-80
2024/03/30 09:39:40;;;;;;;6.75;3.60;;;13.30;99.90;;;;;;4999954;28;20096;-79
2024/03/30 09:42:08;;;;;;;5.45;3.47;;;13.50;99.90;;;;;;5018111;28;20046;-79
2024/03/30 09:44:35;;;;;;;5.70;3.50;;;13.60;99.90;;;;;;5008300;28;20442;-79
2024/03/30 09:47:01;;;;;;;;;;;13.80;99.90;;;;;;5003927;28;20049;-80
2024/03/30 09:49:31;;;;;;;5.97;3.40;;;14.00;99.90;;;;;;5009969;28;19923;-77
2024/03/30 09:52:07;;;;;;;5.25;3.38;;;14.20;99.90;;;;;;5004981;28;20478;-78
2024/03/30 09:54:34;;;;;;;8.57;3.67;;;14.30;99.90;;;;;;4993262;28;20125;-79
2024/03/30 09:57:01;;;;;;;4.70;3.40;;;14.30;99.90;;;;;;5014970;28;20054;-78
2024/03/30 09:59:27;;;;;;;8.32;3.60;;;14.20;99.90;;;;;;5006478;28;20057;-78
2024/03/30 10:01:53;;;;;;;13.00;3.38;;;14.10;99.90;;;;;;4996986;28;20045;-78
2024/03/30 10:04:18;;;;;;;6.53;3.45;;;14.20;99.90;;;;;;5007132;28;20400;-78
2024/03/30 10:06:48;;;;;;;11.43;3.80;;;14.20;99.90;;;;;;5013370;28;20113;-78
2024/03/30 10:09:15;;;;;;;7.20;3.80;;;14.20;99.90;;;;;;5001416;28;20176;-78
2024/03/30 10:11:43;;;;;;;7.35;3.83;;;14.30;99.90;;;;;;5013949;28;20379;-78
2024/03/30 10:14:33;;;;;;;8.70;3.90;;;14.30;99.90;;;;;;4995080;28;20135;-77
2024/03/30 10:17:01;;;;;;;8.10;3.75;;;14.30;99.90;;;;;;5001256;28;20113;-77
2024/03/30 10:19:29;;;;;;;16.20;4.47;;;14.20;99.90;;;;;;4996904;28;20491;-77
2024/03/30 10:21:55;;;;;;;11.95;4.25;;;14.10;99.90;;;;;;4996214;28;20053;-76
2024/03/30 10:24:22;;;;;;;11.52;4.05;;;14.00;99.90;;;;;;4997753;28;20052;-78
2024/03/30 10:26:48;;;;;;;12.52;3.83;;;14.00;99.90;;;;;;4993755;28;20042;-78
2024/03/30 10:29:14;;;;;;;10.98;3.88;;;14.00;99.90;;;;;;4980351;28;20520;-78
2024/03/30 10:31:43;;;;;;;13.45;3.83;;;14.00;99.90;;;;;;5004329;28;20036;-78
2024/03/30 10:34:09;;;;;;;9.32;4.15;;;14.00;99.90;;;;;;5009507;28;20658;-78
2024/03/30 10:36:37;;;;;;;13.20;3.92;;;14.00;99.90;;;;;;4978731;28;20131;-78
2024/03/30 10:39:06;;;;;;;13.98;4.38;;;14.10;99.90;;;;;;4994839;28;20042;-78
2024/03/30 10:41:32;;;;;;;16.33;4.32;;;14.10;99.90;;;;;;4993835;28;20461;-77
2024/03/30 10:43:57;;;;;;;15.13;4.40;;;14.10;99.90;;;;;;5016130;28;20038;-80
2024/03/30 10:46:23;;;;;;;11.82;3.90;;;14.10;99.90;;;;;;4988333;28;20044;-80
2024/03/30 10:48:53;;;;;;;18.98;4.55;;;14.20;99.90;;;;;;5006531;28;20033;-80
2024/03/30 10:51:20;;;;;;;22.80;3.90;;;14.30;99.90;;;;;;4999194;28;20034;-80
2024/03/30 10:53:49;;;;;;;17.13;3.72;;;14.40;99.90;;;;;;5001346;28;20108;-81
2024/03/30 10:56:15;;;;;;;17.15;4.00;;;14.50;99.90;;;;;;5000208;28;20128;-81
2024/03/30 10:58:40;;;;;;;10.70;3.72;;;14.50;99.90;;;;;;4998919;28;20124;-82
2024/03/30 11:01:08;;;;;;;16.27;4.00;;;14.70;99.90;;;;;;4983639;28;20034;-82
2024/03/30 11:03:34;;;;;;;21.17;3.97;;;14.80;99.90;;;;;;4993877;28;20380;-80
2024/03/30 11:06:01;;;;;;;17.75;4.38;;;14.90;99.90;;;;;;4992950;28;20042;-80
2024/03/30 11:08:27;;;;;;;24.08;4.00;;;15.10;99.90;;;;;;5008367;28;20041;-81
2024/03/30 11:10:54;;;;;;;22.48;4.90;;;15.30;99.90;;;;;;4997373;28;20041;-83
2024/03/30 11:13:20;;;;;;;32.42;5.03;;;15.30;99.90;;;;;;5009872;28;20076;-84
2024/03/30 11:15:48;;;;;;;31.20;5.03;;;15.30;99.90;;;;;;5006234;28;20038;-81
2024/03/30 11:18:45;;;;;;;26.38;4.50;;;15.30;99.90;;;;;;5001789;28;20144;-81
2024/03/30 11:21:25;;;;;;;29.75;4.50;;;15.30;99.90;;;;;;4995299;28;20053;-81
2024/03/30 11:23:56;;;;;;;25.20;4.20;;;15.20;99.90;;;;;;5005869;28;20427;-82
2024/03/30 11:26:23;;;;;;;19.15;3.83;;;15.10;99.90;;;;;;5003249;28;20053;-79
2024/03/30 11:29:07;;;;;;;22.77;4.10;;;15.10;99.90;;;;;;4998319;28;20118;-78
2024/03/30 11:31:52;;;;;;;22.08;4.10;;;15.10;99.90;;;;;;5013773;28;20449;-83
2024/03/30 11:34:50;;;;;;;28.05;4.18;;;14.90;99.90;;;;;;4993300;28;20482;-78
2024/03/30 11:37:21;;;;;;;25.15;4.15;;;14.90;99.90;;;;;;4922084;28;20056;-77
2024/03/30 11:40:20;;;;;;;22.02;4.85;;;14.90;99.90;;;;;;5013333;28;20498;-78
2024/03/30 11:43:06;;;;;;;26.67;4.55;;;14.80;99.90;;;;;;5021560;28;20073;-79
2024/03/30 11:45:34;;;;;;;27.88;4.80;;;14.70;99.90;;;;;;5006660;28;20092;-79
2024/03/30 11:48:00;;;;;;;18.80;4.30;;;14.70;99.90;;;;;;5005437;28;20514;-78
2024/03/30 11:50:26;;;;;;;25.60;4.55;;;14.70;99.90;;;;;;5001750;28;20125;-79
2024/03/30 11:52:52;;;;;;;21.83;4.68;;;14.70;99.90;;;;;;4998123;28;20445;-78
2024/03/30 11:55:33;;;;;;;20.95;4.05;;;14.80;99.90;;;;;;5014106;28;20045;-78
2024/03/30 11:58:00;;;;;;;19.13;4.15;;;14.80;99.90;;;;;;4995961;28;20088;-78
2024/03/30 12:00:28;;;;;;;20.88;3.95;;;14.80;99.90;;;;;;4987131;28;20069;-78
2024/03/30 12:03:03;;;;;;;26.83;4.55;;;14.80;99.90;;;;;;4994745;28;20038;-78
2024/03/30 12:05:29;;;;;;;21.40;4.20;;;14.80;99.90;;;;;;5010028;28;20053;-77
2024/03/30 12:07:59;;;;;;;19.85;3.92;;;14.90;99.90;;;;;;4999819;28;20041;-78
2024/03/30 12:10:26;;;;;;;26.25;5.40;;;14.90;99.90;;;;;;4998519;28;20076;-78
2024/03/30 12:13:00;;;;;;;25.17;4.32;;;14.90;99.90;;;;;;4996425;28;20157;-78
2024/03/30 12:15:27;;;;;;;26.08;4.38;;;15.00;99.90;;;;;;4994278;28;20056;-78
2024/03/30 12:17:53;;;;;;;20.50;4.60;;;15.00;99.90;;;;;;5013293;28;20125;-78
2024/03/30 12:20:19;;;;;;;25.45;5.18;;;15.00;99.90;;;;;;5021797;28;20439;-78
2024/03/30 12:22:45;;;;;;;23.25;4.28;;;15.00;99.90;;;;;;4999623;28;20107;-78
2024/03/30 12:25:12;;;;;;;17.35;4.22;;;14.90;99.90;;;;;;5000708;28;20534;-79
2024/03/30 12:27:40;;;;;;;25.08;4.72;;;14.90;99.90;;;;;;4998151;28;20046;-79
2024/03/30 12:30:07;;;;;;;21.30;4.00;;;14.80;99.90;;;;;;5018415;28;20030;-80
2024/03/30 12:32:34;;;;;;;22.70;4.45;;;14.80;99.90;;;;;;5004139;28;20061;-79
2024/03/30 12:35:00;;;;;;;24.70;4.65;;;14.80;99.90;;;;;;5002751;28;20045;-80
2024/03/30 12:37:26;;;;;;;29.85;4.75;;;14.80;99.90;;;;;;5002276;28;20383;-79
2024/03/30 12:39:52;;;;;;;21.83;4.43;;;14.80;99.90;;;;;;4995729;28;20179;-81
2024/03/30 12:42:21;;;;;;;22.95;4.18;;;14.90;99.90;;;;;;5001167;28;20607;-80
2024/03/30 12:44:52;;;;;;;25.98;4.50;;;15.00;99.90;;;;;;5005607;28;20045;-79